createdAt,value
2019-04-25T00:02:36.753Z,15.20
2019-04-25T00:05:10.951Z,15.10
2019-04-25T00:07:42.466Z,15.10
2019-04-25T00:10:13.794Z,15.10
2019-04-25T00:12:44.478Z,15.10
2019-04-25T00:15:14.086Z,15.00
2019-04-25T00:17:44.540Z,15.00
2019-04-25T00:20:14.623Z,14.90
2019-04-25T00:23:05.227Z,14.90
2019-04-25T00:25:52.791Z,14.80
2019-04-25T00:28:22.305Z,14.90
2019-04-25T00:30:52.276Z,14.90
2019-04-25T00:33:22.363Z,14.90
2019-04-25T00:35:52.709Z,14.90
2019-04-25T00:38:22.248Z,14.90
2019-04-25T00:40:53.525Z,14.90
2019-04-25T00:43:22.916Z,14.90
2019-04-25T00:45:52.710Z,14.90
2019-04-25T00:48:22.372Z,14.90
2019-04-25T00:50:54.477Z,14.80
2019-04-25T00:53:22.797Z,14.80
2019-04-25T00:55:52.866Z,14.80
2019-04-25T00:58:35.296Z,14.80
2019-04-25T01:01:38.819Z,14.70
2019-04-25T01:04:08.172Z,14.60
2019-04-25T01:06:37.534Z,14.50
2019-04-25T01:09:12.471Z,14.50
2019-04-25T01:11:42.399Z,14.50
2019-04-25T01:14:11.980Z,14.40
2019-04-25T01:16:41.758Z,14.30
2019-04-25T01:19:11.121Z,14.30
2019-04-25T01:21:40.436Z,14.20
2019-04-25T01:24:10.169Z,14.20
2019-04-25T01:26:39.449Z,14.20
2019-04-25T01:29:09.119Z,14.10
2019-04-25T01:31:38.604Z,14.10
2019-04-25T01:34:10.736Z,14.20
2019-04-25T01:37:19.015Z,14.30
2019-04-25T01:39:59.304Z,14.40
2019-04-25T01:43:03.742Z,14.30
2019-04-25T01:45:34.394Z,14.20
2019-04-25T01:48:04.044Z,14.10
2019-04-25T01:50:35.230Z,14.00
2019-04-25T01:53:04.411Z,14.00
2019-04-25T01:55:33.778Z,14.00
2019-04-25T01:58:03.885Z,14.10
2019-04-25T02:00:39.283Z,14.10
2019-04-25T02:03:08.706Z,14.00
2019-04-25T02:05:38.054Z,14.00
2019-04-25T02:08:07.486Z,13.90
2019-04-25T02:10:36.841Z,13.90
2019-04-25T02:13:08.420Z,13.80
2019-04-25T02:15:37.694Z,13.70
2019-04-25T02:18:07.020Z,13.60
2019-04-25T02:20:36.345Z,13.50
2019-04-25T02:23:05.695Z,13.50
2019-04-25T02:25:34.980Z,13.50
2019-04-25T02:28:05.668Z,13.40
2019-04-25T02:30:35.767Z,13.30
2019-04-25T02:33:09.006Z,13.20
2019-04-25T02:35:36.163Z,13.10
2019-04-25T02:38:08.821Z,13.00
2019-04-25T02:40:36.662Z,13.00
2019-04-25T02:43:07.905Z,13.00
2019-04-25T02:46:08.632Z,13.00
2019-04-25T02:49:29.947Z,13.00
2019-04-25T02:52:12.808Z,12.90
2019-04-25T02:54:39.217Z,12.90
2019-04-25T02:57:08.445Z,12.90
2019-04-25T02:59:38.007Z,12.90
2019-04-25T03:02:09.201Z,12.90
2019-04-25T03:04:38.818Z,12.90
2019-04-25T03:07:11.073Z,12.80
2019-04-25T03:09:40.250Z,12.70
2019-04-25T03:12:09.611Z,12.60
2019-04-25T03:14:39.039Z,12.50
2019-04-25T03:17:09.922Z,12.40
2019-04-25T03:19:59.886Z,12.40
2019-04-25T03:22:30.405Z,12.30
2019-04-25T03:25:00.269Z,12.30
2019-04-25T03:27:30.718Z,12.30
2019-04-25T03:29:59.990Z,12.30
2019-04-25T03:32:29.522Z,12.40
2019-04-25T03:34:58.839Z,12.40
2019-04-25T03:37:28.139Z,12.30
2019-04-25T03:39:57.416Z,12.20
2019-04-25T03:42:26.661Z,12.10
2019-04-25T03:44:55.924Z,12.10
2019-04-25T03:47:25.177Z,12.10
2019-04-25T03:49:55.436Z,12.00
2019-04-25T03:52:24.860Z,12.00
2019-04-25T03:54:56.729Z,12.00
2019-04-25T03:57:25.468Z,12.00
2019-04-25T03:59:54.720Z,12.00
2019-04-25T04:02:25.122Z,12.00
2019-04-25T04:04:54.463Z,12.00
2019-04-25T04:07:23.951Z,12.00
2019-04-25T04:09:54.964Z,12.00
2019-04-25T04:12:24.529Z,12.00
2019-04-25T04:14:53.901Z,12.00
2019-04-25T04:17:35.981Z,12.10
2019-04-25T04:20:37.130Z,12.10
2019-04-25T04:23:14.377Z,12.10
2019-04-25T04:25:43.825Z,12.10
2019-04-25T04:28:14.086Z,12.10
2019-04-25T04:30:45.425Z,12.00
2019-04-25T04:33:26.675Z,12.00
2019-04-25T04:35:47.639Z,12.00
2019-04-25T04:38:16.858Z,12.00
2019-04-25T04:40:46.149Z,12.00
2019-04-25T04:43:16.505Z,12.10
2019-04-25T04:45:45.869Z,12.10
2019-04-25T04:48:16.652Z,12.20
2019-04-25T04:50:46.045Z,12.30
2019-04-25T04:53:16.039Z,12.30
2019-04-25T04:55:45.615Z,12.40
2019-04-25T04:58:16.110Z,12.40
2019-04-25T05:00:46.326Z,12.40
2019-04-25T05:03:26.684Z,12.40
2019-04-25T05:06:17.761Z,12.40
2019-04-25T05:08:50.186Z,12.50
2019-04-25T05:11:19.929Z,12.60
2019-04-25T05:13:49.456Z,12.60
2019-04-25T05:16:19.759Z,12.70
2019-04-25T05:18:49.130Z,12.80
2019-04-25T05:21:18.459Z,12.90
2019-04-25T05:23:47.763Z,13.10
2019-04-25T05:26:17.232Z,13.30
2019-04-25T05:28:46.545Z,13.40
2019-04-25T05:31:37.885Z,13.60
2019-04-25T05:34:07.126Z,13.70
2019-04-25T05:36:39.447Z,13.90
2019-04-25T05:39:10.597Z,14.00
2019-04-25T05:41:59.663Z,14.20
2019-04-25T05:44:30.219Z,14.30
2019-04-25T05:46:59.502Z,14.50
2019-04-25T05:49:28.840Z,14.60
2019-04-25T05:51:58.094Z,14.70
2019-04-25T05:54:27.481Z,14.80
2019-04-25T05:56:56.831Z,15.00
2019-04-25T05:59:26.921Z,15.10
2019-04-25T06:01:56.306Z,15.20
2019-04-25T06:04:25.903Z,15.30
2019-04-25T06:06:55.335Z,15.40
2019-04-25T06:09:54.404Z,15.60
2019-04-25T06:12:34.094Z,15.90
2019-04-25T06:15:03.514Z,17.70
2019-04-25T06:17:53.370Z,21.10
2019-04-25T06:20:24.909Z,24.40
2019-04-25T06:23:11.004Z,27.60
2019-04-25T06:25:40.342Z,29.30
2019-04-25T06:28:13.636Z,31.10
2019-04-25T06:30:44.310Z,31.10
2019-04-25T06:33:15.026Z,31.30
2019-04-25T06:35:44.411Z,31.10
2019-04-25T06:38:13.693Z,31.10
2019-04-25T06:40:43.714Z,31.30
2019-04-25T06:43:13.634Z,31.00
2019-04-25T06:45:51.536Z,31.10
2019-04-25T06:48:27.104Z,31.90
2019-04-25T06:50:57.232Z,32.20
2019-04-25T06:53:26.954Z,32.40
2019-04-25T06:55:56.323Z,32.40
2019-04-25T06:58:27.178Z,32.70
2019-04-25T07:01:00.644Z,32.30
2019-04-25T07:03:27.634Z,32.50
2019-04-25T07:05:57.011Z,31.90
2019-04-25T07:08:26.915Z,31.80
2019-04-25T07:10:57.083Z,31.40
2019-04-25T07:13:27.045Z,32.70
2019-04-25T07:15:56.475Z,32.50
2019-04-25T07:18:30.529Z,32.30
2019-04-25T07:20:56.804Z,32.50
2019-04-25T07:23:26.615Z,33.40
2019-04-25T07:26:07.066Z,33.90
2019-04-25T07:28:58.201Z,33.80
2019-04-25T07:31:50.831Z,33.40
2019-04-25T07:34:22.115Z,33.60
2019-04-25T07:36:51.550Z,33.40
2019-04-25T07:39:20.863Z,33.30
2019-04-25T07:41:50.326Z,33.20
2019-04-25T07:44:22.008Z,33.30
2019-04-25T07:46:50.708Z,33.70
2019-04-25T07:49:20.600Z,33.80
2019-04-25T07:51:53.656Z,33.40
2019-04-25T07:54:23.970Z,33.40
2019-04-25T07:56:55.066Z,33.00
2019-04-25T07:59:25.297Z,32.80
2019-04-25T08:01:54.715Z,33.50
2019-04-25T08:04:24.030Z,34.10
2019-04-25T08:06:54.270Z,34.40
2019-04-25T08:09:24.768Z,34.30
2019-04-25T08:11:54.941Z,33.60
2019-04-25T08:14:34.194Z,33.70
2019-04-25T08:17:04.150Z,33.80
2019-04-25T08:19:34.392Z,33.60
2019-04-25T08:22:04.992Z,33.70
2019-04-25T08:24:37.117Z,33.90
2019-04-25T08:27:09.326Z,33.10
2019-04-25T08:29:39.732Z,32.50
2019-04-25T08:32:09.212Z,32.30
2019-04-25T08:34:38.660Z,32.90
2019-04-25T08:37:18.064Z,33.20
2019-04-25T08:39:39.805Z,33.50
2019-04-25T08:42:10.319Z,33.90
2019-04-25T08:44:39.587Z,33.50
2019-04-25T08:47:08.982Z,32.80
2019-04-25T08:49:45.998Z,33.10
2019-04-25T08:52:15.541Z,33.20
2019-04-25T08:54:58.977Z,33.00
2019-04-25T08:57:46.426Z,32.60
2019-04-25T09:00:25.259Z,32.90
2019-04-25T09:02:58.674Z,33.70
2019-04-25T09:05:40.382Z,33.90
2019-04-25T09:08:10.216Z,34.30
2019-04-25T09:10:40.212Z,33.70
2019-04-25T09:13:13.508Z,33.90
2019-04-25T09:15:46.454Z,33.40
2019-04-25T09:18:15.728Z,32.90
2019-04-25T09:20:48.145Z,32.80
2019-04-25T09:23:20.638Z,33.00
2019-04-25T09:25:49.994Z,33.60
2019-04-25T09:28:19.494Z,34.30
2019-04-25T09:30:51.878Z,33.90
2019-04-25T09:33:39.163Z,34.00
2019-04-25T09:36:10.575Z,34.30
2019-04-25T09:38:40.938Z,33.80
2019-04-25T09:41:10.463Z,33.90
2019-04-25T09:43:40.335Z,33.90
2019-04-25T09:46:21.261Z,33.80
2019-04-25T09:49:10.612Z,34.10
2019-04-25T09:51:45.784Z,32.70
2019-04-25T09:54:48.127Z,32.60
2019-04-25T09:57:38.948Z,31.80
2019-04-25T10:00:18.928Z,31.70
2019-04-25T10:02:50.412Z,32.20
2019-04-25T10:05:20.957Z,32.70
2019-04-25T10:07:50.751Z,32.90
2019-04-25T10:10:20.010Z,32.50
2019-04-25T10:12:49.985Z,33.10
2019-04-25T10:15:44.712Z,33.40
2019-04-25T10:18:15.874Z,32.80
2019-04-25T10:20:46.308Z,32.60
2019-04-25T10:23:15.855Z,32.50
2019-04-25T10:25:48.580Z,32.30
2019-04-25T10:28:18.052Z,32.20
2019-04-25T10:30:49.164Z,31.40
2019-04-25T10:33:20.182Z,31.80
2019-04-25T10:35:55.900Z,31.50
2019-04-25T10:38:20.477Z,31.40
2019-04-25T10:40:50.794Z,31.90
2019-04-25T10:43:21.692Z,31.70
2019-04-25T10:45:51.235Z,31.00
2019-04-25T10:48:24.137Z,30.40
2019-04-25T10:50:55.622Z,29.80
2019-04-25T10:53:25.166Z,30.00
2019-04-25T10:55:58.292Z,30.40
2019-04-25T10:58:27.655Z,31.00
2019-04-25T11:00:57.272Z,31.00
2019-04-25T11:03:49.916Z,30.50
2019-04-25T11:06:24.444Z,30.60
2019-04-25T11:08:56.299Z,30.60
2019-04-25T11:11:24.908Z,30.90
2019-04-25T11:13:57.399Z,30.80
2019-04-25T11:16:26.933Z,30.20
2019-04-25T11:18:56.721Z,30.40
2019-04-25T11:21:25.984Z,30.70
2019-04-25T11:23:55.576Z,30.80
2019-04-25T11:26:25.729Z,30.50
2019-04-25T11:28:54.998Z,30.50
2019-04-25T11:31:28.986Z,30.90
2019-04-25T11:33:58.358Z,30.10
2019-04-25T11:36:27.607Z,30.30
2019-04-25T11:39:34.200Z,30.40
2019-04-25T11:42:06.363Z,30.20
2019-04-25T11:44:35.998Z,29.90
2019-04-25T11:47:06.919Z,29.50
2019-04-25T11:49:36.865Z,29.90
2019-04-25T11:52:06.921Z,30.00
2019-04-25T11:54:36.364Z,29.60
2019-04-25T11:57:07.326Z,29.10
2019-04-25T11:59:37.940Z,28.40
2019-04-25T12:02:09.841Z,28.00
2019-04-25T12:04:39.278Z,28.10
2019-04-25T12:07:09.534Z,27.90
2019-04-25T12:09:39.181Z,27.50
2019-04-25T12:12:09.797Z,27.60
2019-04-25T12:14:39.053Z,27.70
2019-04-25T12:17:08.382Z,27.20
2019-04-25T12:19:38.171Z,27.30
2019-04-25T12:22:07.955Z,27.30
2019-04-25T12:24:40.060Z,27.10
2019-04-25T12:27:09.502Z,27.00
2019-04-25T12:29:39.340Z,27.00
2019-04-25T12:32:10.401Z,26.80
2019-04-25T12:34:40.118Z,26.80
2019-04-25T12:37:09.495Z,26.60
2019-04-25T12:39:38.962Z,26.60
2019-04-25T12:42:08.733Z,26.50
2019-04-25T12:45:06.103Z,26.40
2019-04-25T12:47:38.999Z,26.70
2019-04-25T12:50:08.961Z,26.60
2019-04-25T12:52:39.246Z,26.70
2019-04-25T12:55:09.574Z,26.60
2019-04-25T12:57:40.038Z,26.90
2019-04-25T13:00:10.713Z,27.00
2019-04-25T13:02:40.056Z,27.20
2019-04-25T13:05:10.698Z,27.00
2019-04-25T13:07:43.006Z,26.90
2019-04-25T13:10:15.378Z,26.90
2019-04-25T13:12:44.882Z,26.80
2019-04-25T13:15:14.592Z,26.80
2019-04-25T13:17:43.918Z,26.80
2019-04-25T13:20:13.608Z,26.90
2019-04-25T13:22:43.334Z,27.00
2019-04-25T13:25:14.958Z,26.80
2019-04-25T13:28:05.568Z,26.70
2019-04-25T13:31:03.987Z,26.80
2019-04-25T13:33:57.205Z,26.80
2019-04-25T13:36:27.328Z,26.70
2019-04-25T13:38:57.174Z,26.70
2019-04-25T13:41:27.175Z,26.80
2019-04-25T13:43:56.632Z,26.90
2019-04-25T13:46:27.689Z,26.80
2019-04-25T13:48:57.166Z,26.70
2019-04-25T13:51:26.743Z,26.80
2019-04-25T13:53:56.460Z,26.90
2019-04-25T13:56:27.445Z,26.80
2019-04-25T13:58:56.943Z,26.80
2019-04-25T14:01:27.643Z,26.90
2019-04-25T14:04:00.806Z,27.00
2019-04-25T14:06:32.429Z,26.80
2019-04-25T14:09:07.736Z,26.70
2019-04-25T14:11:37.043Z,26.70
2019-04-25T14:14:06.574Z,26.80
2019-04-25T14:17:07.358Z,26.70
2019-04-25T14:20:05.293Z,26.60
2019-04-25T14:22:34.702Z,26.70
2019-04-25T14:25:05.324Z,26.80
2019-04-25T14:27:34.582Z,26.90
2019-04-25T14:30:04.535Z,26.90
2019-04-25T14:32:35.101Z,26.80
2019-04-25T14:35:04.569Z,26.80
2019-04-25T14:37:39.466Z,27.00
2019-04-25T14:40:06.961Z,27.20
2019-04-25T14:42:38.277Z,27.30
2019-04-25T14:45:08.179Z,27.40
2019-04-25T14:47:37.815Z,27.60
2019-04-25T14:50:07.098Z,27.40
2019-04-25T14:52:38.712Z,27.20
2019-04-25T14:55:27.988Z,27.30
2019-04-25T14:57:58.714Z,27.20
2019-04-25T15:00:34.903Z,27.10
2019-04-25T15:03:04.659Z,27.10
2019-04-25T15:05:34.822Z,27.00
2019-04-25T15:08:04.394Z,26.90
2019-04-25T15:10:34.092Z,26.90
2019-04-25T15:13:04.515Z,26.90
2019-04-25T15:15:33.868Z,26.90
2019-04-25T15:18:04.191Z,26.80
2019-04-25T15:20:34.361Z,26.90
2019-04-25T15:23:03.821Z,26.70
2019-04-25T15:25:33.579Z,26.80
2019-04-25T15:28:03.027Z,26.80
2019-04-25T15:30:36.973Z,26.90
2019-04-25T15:33:07.466Z,26.80
2019-04-25T15:35:47.223Z,26.80
2019-04-25T15:38:25.421Z,26.90
2019-04-25T15:41:04.586Z,26.90
2019-04-25T15:43:49.098Z,26.80
2019-04-25T15:46:22.243Z,26.70
2019-04-25T15:48:52.464Z,26.70
2019-04-25T15:51:22.051Z,26.60
2019-04-25T15:53:51.439Z,26.60
2019-04-25T15:56:20.725Z,26.60
2019-04-25T15:58:50.033Z,26.70
2019-04-25T16:01:20.357Z,26.60
2019-04-25T16:03:52.369Z,26.60
2019-04-25T16:06:20.673Z,26.60
2019-04-25T16:08:49.939Z,26.50
2019-04-25T16:11:19.316Z,26.40
2019-04-25T16:13:48.638Z,26.40
2019-04-25T16:16:17.954Z,26.30
2019-04-25T16:18:47.208Z,26.20
2019-04-25T16:21:16.580Z,26.10
2019-04-25T16:23:46.204Z,26.00
2019-04-25T16:26:15.519Z,25.90
2019-04-25T16:28:45.901Z,25.80
2019-04-25T16:31:18.340Z,25.80
2019-04-25T16:33:47.641Z,25.70
2019-04-25T16:36:17.359Z,25.70
2019-04-25T16:38:46.633Z,25.60
2019-04-25T16:41:16.325Z,25.50
2019-04-25T16:43:49.010Z,25.50
2019-04-25T16:46:19.083Z,25.40
2019-04-25T16:48:48.387Z,25.40
2019-04-25T16:51:18.066Z,25.30
2019-04-25T16:53:47.431Z,25.20
2019-04-25T16:56:16.682Z,25.10
2019-04-25T16:58:46.005Z,25.10
2019-04-25T17:01:15.806Z,25.00
2019-04-25T17:03:45.179Z,24.90
2019-04-25T17:06:14.786Z,24.80
2019-04-25T17:08:44.045Z,24.70
2019-04-25T17:11:13.576Z,24.60
2019-04-25T17:13:52.476Z,24.50
2019-04-25T17:16:34.697Z,24.40
2019-04-25T17:19:09.987Z,24.30
2019-04-25T17:21:39.484Z,24.20
2019-04-25T17:24:10.993Z,24.20
2019-04-25T17:26:40.619Z,24.20
2019-04-25T17:29:15.103Z,24.10
2019-04-25T17:32:07.335Z,24.00
2019-04-25T17:34:51.492Z,23.90
2019-04-25T17:37:51.960Z,23.90
2019-04-25T17:40:25.217Z,23.70
2019-04-25T17:42:56.059Z,23.60
2019-04-25T17:45:29.692Z,23.50
2019-04-25T17:47:59.908Z,23.40
2019-04-25T17:50:29.205Z,23.30
2019-04-25T17:52:58.571Z,23.30
2019-04-25T17:55:27.922Z,23.20
2019-04-25T17:57:57.242Z,23.10
2019-04-25T18:00:33.774Z,23.00
2019-04-25T18:03:03.427Z,22.90
2019-04-25T18:05:32.845Z,22.90
2019-04-25T18:08:02.781Z,22.80
2019-04-25T18:10:34.191Z,22.70
2019-04-25T18:13:04.375Z,22.60
2019-04-25T18:15:50.548Z,22.50
2019-04-25T18:18:37.085Z,22.50
2019-04-25T18:21:06.591Z,22.40
2019-04-25T18:24:10.187Z,22.30
2019-04-25T18:27:02.722Z,22.20
2019-04-25T18:29:32.631Z,22.10
2019-04-25T18:32:02.541Z,22.10
2019-04-25T18:34:48.122Z,22.00
2019-04-25T18:37:37.283Z,22.00
2019-04-25T18:40:27.553Z,21.90
2019-04-25T18:43:14.083Z,21.80
2019-04-25T18:45:46.524Z,21.70
2019-04-25T18:48:15.852Z,21.60
2019-04-25T18:50:45.367Z,21.60
2019-04-25T18:53:33.642Z,21.50
2019-04-25T18:56:11.950Z,21.40
2019-04-25T18:59:02.042Z,21.40
2019-04-25T19:01:53.956Z,21.30
2019-04-25T19:04:36.258Z,21.20
2019-04-25T19:07:05.576Z,21.10
2019-04-25T19:09:34.902Z,21.10
2019-04-25T19:12:04.250Z,21.00
2019-04-25T19:14:33.583Z,20.90
2019-04-25T19:17:02.915Z,20.90
2019-04-25T19:19:32.178Z,20.80
2019-04-25T19:22:01.580Z,20.70
2019-04-25T19:24:32.907Z,20.60
2019-04-25T19:27:02.331Z,20.50
2019-04-25T19:29:31.789Z,20.50
2019-04-25T19:32:01.113Z,20.50
2019-04-25T19:34:30.420Z,20.40
2019-04-25T19:36:59.780Z,20.40
2019-04-25T19:39:31.045Z,20.30
2019-04-25T19:42:17.926Z,20.20
2019-04-25T19:44:47.353Z,20.10
2019-04-25T19:47:16.642Z,20.00
2019-04-25T19:49:45.924Z,19.90
2019-04-25T19:52:15.167Z,19.90
2019-04-25T19:54:45.189Z,19.80
2019-04-25T19:57:14.723Z,19.80
2019-04-25T19:59:44.671Z,19.80
2019-04-25T20:02:25.940Z,19.70
2019-04-25T20:05:05.872Z,19.70
2019-04-25T20:07:46.552Z,19.70
2019-04-25T20:10:30.992Z,19.60
2019-04-25T20:13:00.285Z,19.60
2019-04-25T20:15:29.630Z,19.50
2019-04-25T20:17:58.895Z,19.50
2019-04-25T20:20:29.443Z,19.40
2019-04-25T20:22:59.144Z,19.30
2019-04-25T20:25:28.531Z,19.30
2019-04-25T20:27:57.856Z,19.20
2019-04-25T20:30:27.189Z,19.10
2019-04-25T20:32:56.558Z,19.10
2019-04-25T20:35:25.920Z,19.00
2019-04-25T20:37:55.638Z,18.90
2019-04-25T20:40:25.029Z,18.80
2019-04-25T20:42:54.397Z,18.70
2019-04-25T20:45:24.043Z,18.60
2019-04-25T20:47:54.802Z,18.60
2019-04-25T20:50:24.196Z,18.60
2019-04-25T20:52:54.757Z,18.60
2019-04-25T20:55:24.566Z,18.50
2019-04-25T20:57:53.925Z,18.40
2019-04-25T21:00:44.624Z,18.40
2019-04-25T21:03:14.628Z,18.30
2019-04-25T21:05:45.873Z,18.30
2019-04-25T21:08:15.147Z,18.30
2019-04-25T21:10:44.493Z,18.20
2019-04-25T21:13:18.258Z,18.10
2019-04-25T21:15:56.176Z,18.10
2019-04-25T21:18:47.211Z,18.00
2019-04-25T21:21:17.372Z,17.90
2019-04-25T21:23:46.789Z,17.90
2019-04-25T21:26:16.118Z,17.80
2019-04-25T21:28:45.408Z,17.80
2019-04-25T21:31:14.895Z,17.80
2019-04-25T21:33:44.254Z,17.80
2019-04-25T21:36:13.832Z,17.80
2019-04-25T21:38:44.658Z,17.80
2019-04-25T21:41:41.513Z,17.80
2019-04-25T21:44:11.354Z,17.80
2019-04-25T21:46:41.370Z,17.60
2019-04-25T21:49:11.098Z,17.50
2019-04-25T21:51:40.404Z,17.50
2019-04-25T21:54:09.782Z,17.40
2019-04-25T21:56:40.216Z,17.30
2019-04-25T21:59:09.849Z,17.20
2019-04-25T22:01:41.314Z,17.10
2019-04-25T22:04:13.206Z,17.10
2019-04-25T22:06:45.331Z,17.00
2019-04-25T22:09:17.423Z,17.00
2019-04-25T22:11:46.973Z,16.90
2019-04-25T22:14:17.206Z,16.80
2019-04-25T22:16:46.986Z,16.70
2019-04-25T22:19:17.067Z,16.70
2019-04-25T22:21:46.854Z,16.60
2019-04-25T22:24:17.228Z,16.50
2019-04-25T22:26:48.181Z,16.50
2019-04-25T22:29:17.590Z,16.50
2019-04-25T22:31:54.578Z,16.50
2019-04-25T22:34:33.055Z,16.50
2019-04-25T22:37:02.386Z,16.40
2019-04-25T22:39:31.759Z,16.40
2019-04-25T22:42:01.987Z,16.30
2019-04-25T22:44:31.738Z,16.30
2019-04-25T22:47:02.314Z,16.30
2019-04-25T22:49:31.741Z,16.30
2019-04-25T22:52:01.764Z,16.30
2019-04-25T22:54:32.359Z,16.10
2019-04-25T22:57:02.965Z,16.00
2019-04-25T22:59:34.520Z,15.90
2019-04-25T23:02:21.591Z,15.80
2019-04-25T23:05:09.047Z,15.80
2019-04-25T23:07:30.798Z,15.80
2019-04-25T23:10:00.558Z,15.80
2019-04-25T23:12:31.210Z,15.80
2019-04-25T23:15:00.597Z,15.80
2019-04-25T23:17:30.223Z,15.70
2019-04-25T23:19:59.856Z,15.70
2019-04-25T23:22:29.318Z,15.60
2019-04-25T23:25:06.528Z,15.50
2019-04-25T23:27:44.605Z,15.30
2019-04-25T23:30:15.932Z,15.20
2019-04-25T23:32:45.314Z,15.10
2019-04-25T23:35:27.558Z,15.10
2019-04-25T23:37:45.874Z,15.10
2019-04-25T23:40:15.871Z,15.00
2019-04-25T23:42:45.379Z,15.00
2019-04-25T23:45:14.686Z,14.90
2019-04-25T23:47:43.982Z,14.90
2019-04-25T23:50:14.684Z,14.90
2019-04-25T23:52:44.138Z,14.80
2019-04-25T23:55:13.432Z,14.80
2019-04-25T23:57:42.788Z,14.80
